Terminal Aerodrome Forecast
Issued by NWS

Home | Current Version | Previous Version | Text Only | Print | Product List | Glossary On
Versions: 1 2 3 4 5 6 7 8 9 10 11 12 13
000
FTUS42 KILM 200210 AAA
TAFCRE
TAF AMD
KCRE 200210Z 2002/2024 VRB03KT 2SM BR SKC
      TEMPO 2004/2008 4SM BR
     FM200800 00000KT 6SM BR SKC
      TEMPO 2008/2012 4SM BR
     FM201400 01005KT P6SM SKC=

USA.gov is the U.S. government's official web portal to all federal, state and local government web resources and services.